Time;durP1;ratioP1;P1;durP2;ratioP2;P2;SDS_P1;SDS_P2;PMS_P1;PMS_P2;Temp;Humidity;BMP_temperature;BMP_pressure;BME280_temperature;BME280_humidity;BME280_pressure;Samples;Min_cycle;Max_cycle;Signal;HPM_P1;HPM_P2
2021/09/01 00:03:10;;;;;;;;;;;;;;;;;;;;;
2021/09/01 00:06:39;;;;;;;0.30;0.30;;;;;;;14.51;52.84;93024.56;4860645;29;20058;-96
2021/09/01 00:09:47;;;;;;;;;;;;;;;;;;;;;
2021/09/01 00:12:33;;;;;;;0.45;0.45;;;;;;;14.32;52.75;93016.81;4849582;29;20131;-95
2021/09/01 00:15:09;;;;;;;0.28;0.28;;;;;;;14.34;53.94;93011.22;4832601;29;20046;-94
2021/09/01 00:18:24;;;;;;;;;;;;;;;;;;;;;
2021/09/01 00:21:13;;;;;;;0.73;0.40;;;;;;;14.16;54.46;93005.81;4837615;29;20045;-93
2021/09/01 00:27:36;;;;;;;0.60;0.50;;;;;;;14.26;51.06;93025.88;4838280;29;20056;-94
2021/09/01 00:30:31;;;;;;;0.40;0.40;;;;;;;14.23;50.70;93013.31;4846294;29;20056;-94
2021/09/01 00:33:29;;;;;;;0.22;0.22;;;;;;;14.60;50.54;93064.19;4848687;29;20121;-95
2021/09/01 00:39:58;;;;;;;;;;;;;;;;;;;;;
2021/09/01 00:43:11;;;;;;;0.40;0.40;;;;;;;14.52;51.63;93052.47;4858157;29;20060;-93
2021/09/01 00:46:10;;;;;;;0.22;0.22;;;;;;;14.34;51.41;93035.75;4859064;29;20050;-95
2021/09/01 00:49:11;;;;;;;0.77;0.52;;;;;;;14.18;51.63;93013.41;4847288;29;20053;-95
2021/09/01 00:52:19;;;;;;;0.82;0.60;;;;;;;14.14;51.47;93012.47;4845836;29;20503;-95
2021/09/01 00:55:46;;;;;;;0.30;0.30;;;;;;;14.29;48.80;93027.91;4860133;29;20053;-94
2021/09/01 01:06:11;;;;;;;0.52;0.52;;;;;;;14.55;62.17;93028.19;4816294;29;20057;-95
2021/09/01 01:09:33;;;;;;;;;;;;;;;;;;;;;
2021/09/01 01:15:58;;;;;;;0.47;0.47;;;;;;;14.38;64.07;93070.16;4840347;29;20846;-94
2021/09/01 01:19:11;;;;;;;;;;;;;;;;;;;;;
2021/09/01 01:22:05;;;;;;;0.52;0.43;;;;;;;14.01;56.32;93042.22;4851953;29;20096;-96
2021/09/01 01:25:32;;;;;;;;;;;;;;;;;;;;;
2021/09/01 01:28:40;;;;;;;0.40;0.40;;;;;;;14.09;53.98;93087.03;4843036;29;20140;-96
2021/09/01 01:31:48;;;;;;;;;;;;;;;;;;;;;
2021/09/01 01:34:34;;;;;;;0.60;0.60;;;;;;;14.15;52.40;93095.63;4859672;29;20049;-95
2021/09/01 01:37:32;;;;;;;0.28;0.28;;;;;;;13.90;52.87;93063.44;4859057;29;20056;-95
2021/09/01 01:40:32;;;;;;;0.35;0.35;;;;;;;13.90;53.25;93071.34;4859167;29;20064;-95
2021/09/01 01:43:36;;;;;;;;;;;;;;;;;;;;;
2021/09/01 01:46:58;;;;;;;0.30;0.30;;;;;;;13.73;53.02;93044.81;4860638;29;20053;-94
2021/09/01 01:49:51;;;;;;;0.47;0.47;;;;;;;13.67;52.84;93038.88;4850887;29;20407;-94
2021/09/01 01:53:22;;;;;;;;;;;;;;;;;;;;;
2021/09/01 01:56:30;;;;;;;0.20;0.20;;;;;;;14.02;51.95;93070.06;4858504;29;20059;-95
2021/09/01 01:59:24;;;;;;;0.47;0.47;;;;;;;14.05;51.76;93066.84;4828088;29;20153;-95
2021/09/01 02:02:30;;;;;;;0.40;0.40;;;;;;;14.21;51.91;93093.66;4857923;29;20041;-96
2021/09/01 02:05:28;;;;;;;0.30;0.30;;;;;;;13.84;51.46;93025.13;4833637;29;20053;-95
2021/09/01 02:08:21;;;;;;;0.10;0.10;;;;;;;13.99;50.34;93034.59;4844285;29;20102;-94
2021/09/01 02:11:33;;;;;;;0.50;0.50;;;;;;;14.12;50.70;93048.84;4849207;29;20041;-95
2021/09/01 02:14:38;;;;;;;;;;;;;;;;;;;;;
2021/09/01 02:17:22;;;;;;;;;;;;;;;;;;;;;
2021/09/01 02:24:09;;;;;;;;;;;;;;;;;;;;;
2021/09/01 02:27:19;;;;;;;;;;;;;;;;;;;;;
2021/09/01 02:30:42;;;;;;;0.45;0.45;;;;;;;13.91;50.84;93043.94;4861069;29;20076;-95
2021/09/01 02:34:04;;;;;;;;;;;;;;;;;;;;;
2021/09/01 02:37:30;;;;;;;0.47;0.40;;;;;;;14.13;50.37;93076.72;4843703;29;20522;-96
2021/09/01 02:41:11;;;;;;;;;;;;;;;;;;;;;
2021/09/01 02:44:01;;;;;;;0.50;0.47;;;;;;;14.22;50.68;93090.75;4839203;29;20049;-95
2021/09/01 02:47:35;;;;;;;0.35;0.35;;;;;;;13.90;51.03;93046.88;4834911;29;20500;-96
2021/09/01 02:50:56;;;;;;;0.40;0.40;;;;;;;13.83;50.70;93036.75;4825481;29;20053;-96
2021/09/01 03:00:36;;;;;;;0.28;0.28;;;;;;;13.92;49.57;93042.88;4859671;29;20078;-95
2021/09/01 03:03:32;;;;;;;0.22;0.22;;;;;;;13.88;49.85;93028.75;4839007;29;20064;-96
2021/09/01 03:06:41;;;;;;;1.48;0.60;;;;;;;13.84;50.46;93032.25;4874550;29;20415;-96
2021/09/01 03:09:46;;;;;;;0.38;0.38;;;;;;;13.81;50.59;93027.59;4847170;29;20056;-96
2021/09/01 03:13:07;;;;;;;0.90;0.68;;;;;;;13.86;50.77;93046.69;4860616;29;20049;-95
2021/09/01 03:16:24;;;;;;;0.20;0.20;;;;;;;13.89;50.97;93056.63;4861219;29;20153;-94
2021/09/01 03:19:30;;;;;;;0.40;0.40;;;;;;;13.96;51.90;93077.31;4841561;29;20060;-94
2021/09/01 03:22:28;;;;;;;0.50;0.50;;;;;;;13.48;53.06;93025.78;4848802;29;20046;-94
2021/09/01 03:25:50;;;;;;;;;;;;;;;;;;;;;
2021/09/01 03:28:54;;;;;;;0.57;0.57;;;;;;;13.38;52.86;93041.75;4860787;29;20495;-95
2021/09/01 03:31:56;;;;;;;;;;;;;;;;;;;;;
2021/09/01 03:34:50;;;;;;;0.25;0.25;;;;;;;13.51;53.29;93077.84;4858421;29;20132;-94
2021/09/01 03:38:14;;;;;;;0.32;0.32;;;;;;;13.54;53.57;93093.03;4861445;29;20066;-95
2021/09/01 03:41:48;;;;;;;;;;;;;;;;;;;;;
2021/09/01 03:45:06;;;;;;;;;;;;;;;;;;;;;
2021/09/01 03:51:38;;;;;;;0.30;0.30;;;;;;;12.88;54.47;93044.13;4786897;30;20089;-95
2021/09/01 03:54:46;;;;;;;0.32;0.32;;;;;;;13.32;54.45;93103.38;4767391;30;20537;-94
2021/09/01 03:58:28;;;;;;;;;;;;;;;;;;;;;
2021/09/01 04:05:25;;;;;;;0.35;0.35;;;;;;;13.16;56.81;93109.94;4861269;29;20055;-94
2021/09/01 04:08:12;;;;;;;;;;;;;;;;;;;;;
2021/09/01 04:11:28;;;;;;;;;;;;;;;;;;;;;
2021/09/01 04:14:18;;;;;;;0.35;0.35;;;;;;;12.61;55.80;93060.50;4843280;29;20539;-95
2021/09/01 04:17:11;;;;;;;0.40;0.40;;;;;;;12.94;57.23;93100.00;4861655;29;20050;-95
2021/09/01 04:23:59;;;;;;;0.30;0.30;;;;;;;13.10;53.25;93054.81;4834652;29;20060;-96
2021/09/01 04:27:16;;;;;;;0.22;0.22;;;;;;;13.08;54.21;93069.28;4816240;29;20053;-96
2021/09/01 04:33:24;;;;;;;;;;;;;;;;;;;;;
2021/09/01 04:36:06;;;;;;;0.20;0.20;;;;;;;12.88;56.13;93070.41;4858008;29;20057;-92
2021/09/01 04:38:46;;;;;;;0.65;0.50;;;;;;;12.90;57.91;93081.38;4853827;29;20494;-94
2021/09/01 04:41:17;;;;;;;1.75;0.85;;;;;;;12.76;59.57;93072.66;4841175;29;20053;-92
2021/09/01 04:43:42;;;;;;;0.30;0.30;;;;;;;12.86;59.99;93109.31;4841441;29;20049;-92
2021/09/01 04:46:22;;;;;;;0.40;0.40;;;;;;;12.54;59.95;93081.91;4854050;29;20111;-93
2021/09/01 04:49:00;;;;;;;0.40;0.40;;;;;;;12.48;61.38;93075.16;4849125;29;20249;-94
2021/09/01 04:51:40;;;;;;;;;;;;;;;;;;;;;
2021/09/01 04:54:42;;;;;;;;;;;;;;;;;;;;;
2021/09/01 04:57:41;;;;;;;;;;;;;;;;;;;;;
2021/09/01 05:00:27;;;;;;;0.30;0.30;;;;;;;12.33;62.95;93101.59;4856972;29;20045;-93
2021/09/01 05:03:00;;;;;;;0.40;0.40;;;;;;;12.62;63.77;93157.41;4855115;29;20896;-92
2021/09/01 05:05:33;;;;;;;1.75;0.60;;;;;;;12.47;63.99;93128.72;4855990;29;20122;-93
2021/09/01 05:08:28;;;;;;;0.75;0.60;;;;;;;12.22;64.08;93093.81;4854040;29;20133;-93
2021/09/01 05:10:59;;;;;;;0.77;0.77;;;;;;;12.27;63.65;93099.03;4857388;29;20049;-93
2021/09/01 05:13:46;;;;;;;0.47;0.47;;;;;;;12.28;63.19;93105.06;4856777;29;20049;-89
2021/09/01 05:16:35;;;;;;;0.75;0.65;;;;;;;12.45;63.28;93117.72;4857291;29;20056;-90
2021/09/01 05:19:45;;;;;;;0.38;0.38;;;;;;;12.37;62.76;93098.13;4841970;29;20098;-91
2021/09/01 05:22:46;;;;;;;0.55;0.52;;;;;;;12.70;61.56;93143.66;4869586;29;20045;-92
2021/09/01 05:25:33;;;;;;;0.80;0.75;;;;;;;12.83;62.19;93157.16;4850508;29;20045;-92
2021/09/01 05:28:52;;;;;;;0.52;0.50;;;;;;;12.72;62.83;93127.59;4831956;29;20386;-92
2021/09/01 05:31:35;;;;;;;;;;;;;;;;;;;;;
2021/09/01 05:34:06;;;;;;;0.40;0.40;;;;;;;12.91;61.38;93122.38;4854093;29;20053;-92
2021/09/01 05:36:51;;;;;;;0.28;0.28;;;;;;;13.08;62.49;93142.88;4855940;29;20460;-92
2021/09/01 05:39:39;;;;;;;0.60;0.50;;;;;;;13.22;63.19;93140.34;4856821;29;20049;-91
2021/09/01 05:42:32;;;;;;;0.50;0.50;;;;;;;13.17;63.77;93119.38;4856694;29;20342;-93
2021/09/01 05:45:32;;;;;;;;;;;;;;;;;;;;;
2021/09/01 05:48:28;;;;;;;0.65;0.50;;;;;;;13.53;65.32;93122.22;4839585;29;20086;-91
2021/09/01 05:51:34;;;;;;;;;;;;;;;;;;;;;
2021/09/01 05:54:32;;;;;;;0.40;0.40;;;;;;;14.05;64.37;93153.72;4856397;29;20521;-91
2021/09/01 05:57:40;;;;;;;0.22;0.22;;;;;;;14.16;63.34;93140.09;4846433;29;20042;-92
2021/09/01 06:00:40;;;;;;;0.65;0.60;;;;;;;14.43;62.19;93145.66;4848129;29;20062;-92
2021/09/01 06:03:52;;;;;;;0.50;0.50;;;;;;;14.77;61.96;93153.16;4857976;29;20092;-92
2021/09/01 06:06:59;;;;;;;;;;;;;;;;;;;;;
2021/09/01 06:10:32;;;;;;;0.68;0.57;;;;;;;15.17;60.60;93148.84;4841431;29;20138;-92
2021/09/01 06:14:18;;;;;;;;;;;;;;;;;;;;;
2021/09/01 06:17:03;;;;;;;0.63;0.63;;;;;;;19.82;49.17;93147.34;4849772;29;20045;-93
2021/09/01 06:19:58;;;;;;;;;;;;;;;;;;;;;
2021/09/01 06:28:51;;;;;;;;;;;;;;;;;;;;;
2021/09/01 06:35:47;;;;;;;;;;;;;;;;;;;;;
2021/09/01 06:38:58;;;;;;;1.00;0.80;;;;;;;26.59;32.71;93147.91;4860981;29;20668;-94
2021/09/01 06:42:09;;;;;;;;;;;;;;;;;;;;;
2021/09/01 06:45:28;;;;;;;;;;;;;;;;;;;;;
2021/09/01 06:54:46;;;;;;;1.50;1.20;;;;;;;29.77;28.03;93103.34;4866149;29;20061;-94
2021/09/01 06:58:06;;;;;;;1.38;1.10;;;;;;;30.69;28.09;93144.44;4876489;29;20049;-94
2021/09/01 07:00:58;;;;;;;1.63;1.13;;;;;;;30.48;28.10;93131.88;4857405;29;20432;-95
2021/09/01 07:03:57;;;;;;;1.60;1.10;;;;;;;27.62;32.17;93122.88;4823019;29;20065;-93
2021/09/01 07:07:32;;;;;;;;;;;;;;;;;;;;;
2021/09/01 07:19:31;;;;;;;;;;;;;;;;;;;;;
2021/09/01 07:27:15;;;;;;;1.60;0.75;;;;;;;20.89;47.90;93108.22;4798835;29;20043;-96
2021/09/01 07:30:44;;;;;;;;;;;;;;;;;;;;;
2021/09/01 07:49:33;;;;;;;;;;;;;;;;;;;;;
2021/09/01 07:57:08;;;;;;;;;;;;;;;;;;;;;
2021/09/01 08:00:48;;;;;;;;;;;;;;;;;;;;;
2021/09/01 08:04:36;;;;;;;;;;;;;;;;;;;;;
2021/09/01 08:08:23;;;;;;;;;;;;;;;;;;;;;
2021/09/01 08:12:09;;;;;;;;;;;;;;;;;;;;;
2021/09/01 08:14:59;;;;;;;;;;;;;;;;;;;;;
2021/09/01 08:40:33;;;;;;;;;;;;;;;;;;;;;
2021/09/01 08:44:08;;;;;;;3.05;0.90;;;;;;;19.00;54.88;93113.28;4659748;30;20061;-96
2021/09/01 08:47:32;;;;;;;1.15;0.68;;;;;;;19.42;54.58;93155.75;4670239;30;20393;-95
2021/09/01 08:51:42;;;;;;;;;;;;;;;;;;;;;
2021/09/01 09:02:22;;;;;;;0.50;0.50;;;;;;;19.59;51.30;93129.06;4803567;29;20153;-94
2021/09/01 09:09:13;;;;;;;0.52;0.52;;;;;;;19.78;50.08;93194.25;4795716;29;20057;-93
2021/09/01 09:12:27;;;;;;;;;;;;;;;;;;;;;
2021/09/01 09:16:11;;;;;;;;;;;;;;;;;;;;;
2021/09/01 09:19:36;;;;;;;;;;;;;;;;;;;;;
2021/09/01 09:26:12;;;;;;;;;;;;;;;;;;;;;
2021/09/01 09:33:20;;;;;;;0.50;0.50;;;;;;;19.61;50.42;93164.06;4825612;29;20419;-95
2021/09/01 09:40:10;;;;;;;0.43;0.43;;;;;;;19.91;48.74;93201.16;4851418;29;20038;-94
2021/09/01 09:43:44;;;;;;;;;;;;;;;;;;;;;
2021/09/01 09:47:17;;;;;;;1.67;0.52;;;;;;;20.07;48.14;93167.53;4837645;29;20106;-94
2021/09/01 09:50:47;;;;;;;0.77;0.63;;;;;;;20.46;46.22;93207.94;4841409;29;20118;-94
2021/09/01 09:54:17;;;;;;;0.32;0.32;;;;;;;20.30;46.39;93201.72;4802442;29;20065;-94
2021/09/01 09:57:16;;;;;;;0.90;0.52;;;;;;;20.06;43.90;93142.09;4832166;29;20050;-95
2021/09/01 10:00:46;;;;;;;;;;;;;;;;;;;;;
2021/09/01 10:04:29;;;;;;;;;;;;;;;;;;;;;
2021/09/01 10:07:46;;;;;;;;;;;;;;;;;;;;;
2021/09/01 10:11:20;;;;;;;;;;;;;;;;;;;;;
2021/09/01 10:14:28;;;;;;;0.40;0.40;;;;;;;20.61;46.91;93187.16;4859352;29;20094;-95
2021/09/01 10:17:45;;;;;;;0.20;0.20;;;;;;;19.99;46.54;93194.97;4816465;29;20072;-92
2021/09/01 10:20:41;;;;;;;;;;;;;;;;;;;;;
2021/09/01 10:24:28;;;;;;;;;;;;;;;;;;;;;
2021/09/01 10:31:03;;;;;;;;;;;;;;;;;;;;;
2021/09/01 10:37:44;;;;;;;1.20;0.70;;;;;;;20.82;42.14;93160.44;4811352;29;20491;-93
2021/09/01 10:44:14;;;;;;;0.68;0.52;;;;;;;21.25;42.37;93183.78;4827531;29;20045;-93
2021/09/01 10:47:31;;;;;;;0.30;0.30;;;;;;;20.81;42.75;93149.03;4815594;29;20058;-95
2021/09/01 10:51:55;;;;;;;0.20;0.20;;;;;;;21.03;42.76;93144.34;4819529;29;20054;-94
2021/09/01 10:54:43;;;;;;;0.80;0.57;;;;;;;21.31;43.62;93195.78;4797637;29;20111;-94
2021/09/01 10:57:58;;;;;;;;;;;;;;;;;;;;;
2021/09/01 11:01:01;;;;;;;0.55;0.52;;;;;;;21.23;41.01;93138.09;4826263;29;20062;-93
2021/09/01 11:04:05;;;;;;;0.52;0.52;;;;;;;21.30;42.79;93170.28;4828326;29;20054;-93
2021/09/01 11:07:08;;;;;;;1.20;0.55;;;;;;;21.86;40.78;93136.81;4813695;29;20135;-95
2021/09/01 11:17:42;;;;;;;0.30;0.30;;;;;;;22.04;42.14;93143.38;4793134;29;20118;-95
2021/09/01 11:21:43;;;;;;;;;;;;;;;;;;;;;
2021/09/01 11:28:58;;;;;;;;;;;;;;;;;;;;;
2021/09/01 11:32:10;;;;;;;0.63;0.55;;;;;;;21.95;45.81;93137.41;4861365;29;20448;-94
2021/09/01 11:36:02;;;;;;;;;;;;;;;;;;;;;
2021/09/01 11:38:49;;;;;;;0.77;0.63;;;;;;;21.82;44.32;93152.72;4862219;29;20056;-95
2021/09/01 11:41:33;;;;;;;0.55;0.45;;;;;;;21.50;43.76;93151.81;4846384;29;20060;-94
2021/09/01 11:45:03;;;;;;;;;;;;;;;;;;;;;
2021/09/01 11:52:50;;;;;;;0.85;0.65;;;;;;;21.76;45.65;93160.16;4861743;29;20132;-95
2021/09/01 11:59:19;;;;;;;0.77;0.63;;;;;;;21.79;46.00;93148.03;4836919;29;20157;-93
2021/09/01 12:02:48;;;;;;;0.65;0.60;;;;;;;22.06;45.67;93178.47;4839749;29;20050;-94
2021/09/01 12:12:12;;;;;;;0.50;0.50;;;;;;;21.99;45.92;93147.06;4764614;30;20044;-95
2021/09/01 12:15:52;;;;;;;;;;;;;;;;;;;;;
2021/09/01 12:19:57;;;;;;;;;;;;;;;;;;;;;
2021/09/01 12:23:13;;;;;;;;;;;;;;;;;;;;;
2021/09/01 12:26:07;;;;;;;1.45;1.00;;;;;;;22.06;44.41;93154.47;4788897;29;20082;-93
2021/09/01 12:29:20;;;;;;;;;;;;;;;;;;;;;
2021/09/01 12:32:32;;;;;;;;;;;;;;;;;;;;;
2021/09/01 12:35:39;;;;;;;0.60;0.60;;;;;;;22.52;44.25;93136.22;4861468;29;20080;-95
2021/09/01 12:39:01;;;;;;;;;;;;;;;;;;;;;
2021/09/01 12:42:15;;;;;;;1.33;0.77;;;;;;;22.73;45.25;93177.88;4862106;29;20533;-94
2021/09/01 12:45:23;;;;;;;1.85;1.05;;;;;;;22.79;44.17;93129.22;4850867;29;20072;-96
2021/09/01 12:48:51;;;;;;;;;;;;;;;;;;;;;
2021/09/01 12:51:58;;;;;;;;;;;;;;;;;;;;;
2021/09/01 12:55:40;;;;;;;;;;;;;;;;;;;;;
2021/09/01 13:02:37;;;;;;;1.15;1.00;;;;;;;22.78;46.07;93170.38;4846291;29;20045;-95
2021/09/01 13:06:02;;;;;;;1.20;0.80;;;;;;;22.88;44.24;93155.75;4778424;30;20086;-94
2021/09/01 13:12:55;;;;;;;;;;;;;;;;;;;;;
2021/09/01 13:16:06;;;;;;;;;;;;;;;;;;;;;
2021/09/01 13:23:21;;;;;;;0.90;0.70;;;;;;;23.16;44.84;93146.84;4857615;29;20041;-95
2021/09/01 13:30:31;;;;;;;;;;;;;;;;;;;;;
2021/09/01 13:37:21;;;;;;;1.15;0.68;;;;;;;22.38;43.93;93101.97;4849541;29;20049;-94
2021/09/01 13:47:28;;;;;;;1.13;0.70;;;;;;;22.96;43.44;93154.75;4859288;29;20132;-94
2021/09/01 13:50:57;;;;;;;;;;;;;;;;;;;;;
2021/09/01 14:01:29;;;;;;;1.10;0.80;;;;;;;22.80;44.23;93151.34;4849934;29;20495;-95
2021/09/01 14:05:34;;;;;;;;;;;;;;;;;;;;;
2021/09/01 14:12:34;;;;;;;0.60;0.60;;;;;;;23.02;43.84;93148.06;4859593;29;20096;-93
2021/09/01 14:19:49;;;;;;;1.00;0.70;;;;;;;22.85;45.46;93138.53;4864156;29;20666;-93
2021/09/01 14:27:05;;;;;;;1.20;1.10;;;;;;;22.89;44.67;93085.19;4845387;29;20554;-93
2021/09/01 14:30:54;;;;;;;;;;;;;;;;;;;;;
2021/09/01 14:37:36;;;;;;;;;;;;;;;;;;;;;
2021/09/01 14:51:23;;;;;;;;;;;;;;;;;;;;;
2021/09/01 14:53:52;;;;;;;0.73;0.73;;;;;;;22.70;41.98;93098.50;4844270;29;20140;-93
2021/09/01 14:56:30;;;;;;;1.42;0.95;;;;;;;23.05;40.39;93082.50;4858734;29;20045;-92
2021/09/01 14:59:11;;;;;;;;;;;;;;;;;;;;;
2021/09/01 15:02:07;;;;;;;1.80;1.00;;;;;;;22.98;42.98;93080.44;4859659;29;20561;-93
2021/09/01 15:04:51;;;;;;;1.25;0.93;;;;;;;22.87;42.66;93103.47;4844123;29;20415;-92
2021/09/01 15:07:36;;;;;;;;;;;;;;;;;;;;;
2021/09/01 15:10:30;;;;;;;;;;;;;;;;;;;;;
2021/09/01 15:13:31;;;;;;;1.73;0.90;;;;;;;23.05;41.03;93109.22;4858640;29;20495;-91
2021/09/01 15:16:42;;;;;;;5.07;1.20;;;;;;;22.75;42.51;93075.00;4846172;29;20141;-91
2021/09/01 15:19:36;;;;;;;;;;;;;;;;;;;;;
2021/09/01 15:22:07;;;;;;;1.05;0.93;;;;;;;22.55;42.84;93073.41;4842289;29;20049;-90
2021/09/01 15:24:47;;;;;;;0.82;0.68;;;;;;;22.90;43.51;93110.78;4858232;29;20064;-90
2021/09/01 15:27:50;;;;;;;1.75;1.02;;;;;;;22.27;44.01;93071.63;4830383;29;20054;-91
2021/09/01 15:30:31;;;;;;;0.85;0.70;;;;;;;22.22;44.90;93063.84;4831394;29;20141;-91
2021/09/01 15:33:30;;;;;;;1.15;0.80;;;;;;;22.28;44.09;93061.72;4855256;29;20050;-92
2021/09/01 15:36:08;;;;;;;1.47;0.90;;;;;;;22.46;43.90;93068.25;4858947;29;20053;-92
2021/09/01 15:38:39;;;;;;;1.42;0.85;;;;;;;22.60;43.65;93081.91;4843112;29;20053;-91
2021/09/01 15:41:29;;;;;;;4.32;1.48;;;;;;;22.69;43.94;93064.94;4842599;29;20202;-91
2021/09/01 15:44:40;;;;;;;0.90;0.80;;;;;;;23.03;43.25;93074.88;4851511;29;20108;-93
2021/09/01 15:47:30;;;;;;;;;;;;;;;;;;;;;
2021/09/01 15:50:03;;;;;;;1.65;1.00;;;;;;;22.64;45.84;93073.97;4858036;29;20053;-91
2021/09/01 15:52:53;;;;;;;1.10;0.88;;;;;;;23.09;44.91;93117.31;4855087;29;20037;-91
2021/09/01 15:55:31;;;;;;;1.52;1.05;;;;;;;23.07;45.36;93067.69;4856321;29;20548;-91
2021/09/01 15:58:40;;;;;;;;;;;;;;;;;;;;;
2021/09/01 16:01:33;;;;;;;1.63;0.98;;;;;;;23.05;43.43;93071.84;4856899;29;20098;-92
2021/09/01 16:04:15;;;;;;;1.38;0.98;;;;;;;22.99;43.46;93079.38;4841719;29;20054;-92
2021/09/01 16:07:12;;;;;;;0.90;0.65;;;;;;;23.01;43.31;93066.44;4845293;29;20053;-92
2021/09/01 16:10:14;;;;;;;;;;;;;;;;;;;;;
2021/09/01 16:12:52;;;;;;;1.05;0.90;;;;;;;22.98;44.52;93072.44;4857410;29;20049;-91
2021/09/01 16:15:56;;;;;;;2.03;1.05;;;;;;;23.03;45.74;93096.22;4857902;29;20045;-91
2021/09/01 16:19:21;;;;;;;2.50;0.88;;;;;;;23.60;44.70;93103.84;4842789;29;20042;-91
2021/09/01 16:22:03;;;;;;;2.08;1.10;;;;;;;23.48;44.42;93054.78;4842341;29;20132;-92
2021/09/01 16:24:45;;;;;;;1.85;1.10;;;;;;;23.61;44.16;93060.72;4871346;29;20510;-90
2021/09/01 16:27:31;;;;;;;;;;;;;;;;;;;;;
2021/09/01 16:30:20;;;;;;;1.95;1.30;;;;;;;23.37;44.33;93071.72;4841294;29;20049;-91
2021/09/01 16:33:10;;;;;;;1.60;0.90;;;;;;;23.27;45.11;93067.72;4825646;29;20060;-91
2021/09/01 16:35:52;;;;;;;;;;;;;;;;;;;;;
2021/09/01 16:41:36;;;;;;;1.20;0.82;;;;;;;23.36;45.68;93102.22;4803821;29;20532;-90
2021/09/01 16:44:29;;;;;;;;;;;;;;;;;;;;;
2021/09/01 16:47:17;;;;;;;2.22;1.27;;;;;;;23.16;44.47;93096.09;4824177;29;20087;-92
2021/09/01 16:50:37;;;;;;;;;;;;;;;;;;;;;
2021/09/01 16:57:17;;;;;;;;;;;;;;;;;;;;;
2021/09/01 17:00:14;;;;;;;;;;;;;;;;;;;;;
2021/09/01 17:03:21;;;;;;;;;;;;;;;;;;;;;
2021/09/01 17:06:32;;;;;;;1.80;1.10;;;;;;;21.75;51.98;93131.19;4808489;29;20050;-92
2021/09/01 17:09:27;;;;;;;;;;;;;;;;;;;;;
2021/09/01 17:12:25;;;;;;;1.55;1.02;;;;;;;20.97;53.65;93088.69;4839734;29;20551;-91
2021/09/01 17:15:10;;;;;;;;;;;;;;;;;;;;;
2021/09/01 17:18:07;;;;;;;0.88;0.82;;;;;;;20.63;55.80;93094.53;4834065;29;20068;-91
2021/09/01 17:21:26;;;;;;;;;;;;;;;;;;;;;
2021/09/01 17:24:18;;;;;;;1.98;1.10;;;;;;;20.63;57.21;93137.09;4819137;29;20565;-90
2021/09/01 17:27:01;;;;;;;7.57;1.48;;;;;;;20.46;57.57;93136.13;4795951;29;20046;-90
2021/09/01 17:29:57;;;;;;;2.47;0.95;;;;;;;20.02;57.61;93093.34;4804793;29;20058;-92
2021/09/01 17:32:37;;;;;;;1.40;0.90;;;;;;;19.90;57.97;93090.66;4804061;29;20066;-90
2021/09/01 17:35:35;;;;;;;1.88;1.23;;;;;;;19.80;58.39;93101.72;4817666;29;20053;-90
2021/09/01 17:38:26;;;;;;;1.15;0.98;;;;;;;19.63;59.09;93092.00;4822431;29;20137;-91
2021/09/01 17:41:10;;;;;;;;;;;;;;;;;;;;;
2021/09/01 17:43:38;;;;;;;1.33;0.90;;;;;;;19.51;59.39;93103.38;4820220;29;20046;-91
2021/09/01 17:46:22;;;;;;;1.30;0.93;;;;;;;19.39;59.86;93108.63;4822082;29;20041;-92
2021/09/01 17:49:29;;;;;;;;;;;;;;;;;;;;;
2021/09/01 17:52:59;;;;;;;1.83;1.13;;;;;;;19.20;60.38;93136.41;4823245;29;20054;-92
2021/09/01 17:55:37;;;;;;;1.38;1.00;;;;;;;19.03;60.46;93123.28;4804744;29;20042;-92
2021/09/01 17:58:32;;;;;;;1.55;1.17;;;;;;;18.76;60.67;93113.91;4820814;29;20052;-91
2021/09/01 18:01:23;;;;;;;;;;;;;;;;;;;;;
2021/09/01 18:04:28;;;;;;;1.25;1.00;;;;;;;18.68;61.30;93140.13;4836422;29;20534;-90
2021/09/01 18:07:26;;;;;;;2.15;1.20;;;;;;;18.38;61.63;93107.53;4824325;29;20128;-91
2021/09/01 18:10:26;;;;;;;1.45;0.95;;;;;;;18.27;61.42;93103.69;4815122;29;20044;-93
2021/09/01 18:13:52;;;;;;;2.60;1.23;;;;;;;18.39;61.88;93145.41;4824527;29;20060;-91
2021/09/01 18:16:21;;;;;;;2.75;1.48;;;;;;;18.15;61.95;93117.63;4821050;29;20122;-91
2021/09/01 18:19:36;;;;;;;1.55;1.05;;;;;;;18.09;62.09;93114.34;4817312;29;20113;-92
2021/09/01 18:22:11;;;;;;;2.53;1.27;;;;;;;17.99;61.95;93117.38;4825552;29;20038;-91
2021/09/01 18:28:49;;;;;;;2.10;1.17;;;;;;;18.06;61.84;93153.97;4824612;29;20509;-90
2021/09/01 18:31:47;;;;;;;1.33;1.10;;;;;;;17.84;61.71;93147.75;4820653;29;20061;-91
2021/09/01 18:34:57;;;;;;;2.78;1.13;;;;;;;17.61;61.74;93125.97;4840952;29;20462;-91
2021/09/01 18:37:34;;;;;;;1.48;0.88;;;;;;;17.56;61.64;93128.78;4851721;29;20046;-91
2021/09/01 18:40:30;;;;;;;1.85;1.10;;;;;;;17.65;61.88;93163.97;4847447;29;20041;-91
2021/09/01 18:43:13;;;;;;;1.52;0.98;;;;;;;17.49;61.87;93141.69;4827539;29;20461;-91
2021/09/01 18:45:52;;;;;;;;;;;;;;;;;;;;;
2021/09/01 18:48:27;;;;;;;1.95;1.10;;;;;;;17.44;61.95;93158.53;4853834;29;20510;-91
2021/09/01 18:51:11;;;;;;;1.98;1.00;;;;;;;17.57;61.82;93183.28;4848904;29;20055;-91
2021/09/01 18:53:39;;;;;;;2.13;1.27;;;;;;;17.36;61.66;93155.88;4855436;29;20084;-91
2021/09/01 18:56:10;;;;;;;1.90;0.80;;;;;;;17.36;61.73;93166.44;4838044;29;20500;-91
2021/09/01 18:58:48;;;;;;;1.83;1.10;;;;;;;17.56;61.64;93202.91;4841341;29;20060;-91
2021/09/01 19:01:40;;;;;;;1.83;1.20;;;;;;;17.51;61.64;93200.41;4837431;29;20077;-91
2021/09/01 19:04:19;;;;;;;1.95;1.20;;;;;;;17.47;61.81;93204.75;4838155;29;20068;-91
2021/09/01 19:06:55;;;;;;;5.57;1.52;;;;;;;17.20;61.83;93168.78;4842388;29;20560;-91
2021/09/01 19:09:35;;;;;;;0.93;0.77;;;;;;;17.13;62.05;93171.88;4858152;29;20057;-93
2021/09/01 19:12:05;;;;;;;1.80;1.20;;;;;;;17.35;61.67;93207.25;4843427;29;20136;-90
2021/09/01 19:14:38;;;;;;;1.80;0.93;;;;;;;17.33;62.11;93214.72;4827653;29;20495;-90
2021/09/01 19:17:04;;;;;;;1.63;1.00;;;;;;;17.36;62.02;93230.75;4840206;29;20057;-91
2021/09/01 19:19:32;;;;;;;1.55;1.15;;;;;;;17.19;62.18;93215.63;4843677;29;20369;-91
2021/09/01 19:22:11;;;;;;;2.20;1.13;;;;;;;17.17;62.26;93217.81;4849244;29;20050;-91
2021/09/01 19:24:40;;;;;;;1.95;1.17;;;;;;;17.10;62.58;93216.72;4841593;29;20049;-91
2021/09/01 19:27:06;;;;;;;1.92;1.02;;;;;;;17.22;62.83;93238.81;4826566;29;20060;-90
2021/09/01 19:29:39;;;;;;;1.65;1.10;;;;;;;17.04;62.80;93222.16;4854836;29;20049;-91
2021/09/01 19:32:05;;;;;;;1.98;1.20;;;;;;;17.11;63.10;93240.19;4824388;29;20050;-91
2021/09/01 19:34:43;;;;;;;1.42;0.90;;;;;;;16.96;63.27;93225.53;4809253;29;20049;-90
2021/09/01 19:37:15;;;;;;;1.40;1.13;;;;;;;16.79;63.42;93207.75;4823590;29;20087;-91
2021/09/01 19:39:42;;;;;;;1.70;1.15;;;;;;;16.99;63.60;93253.25;4810276;29;20083;-90
2021/09/01 19:42:12;;;;;;;1.33;0.90;;;;;;;16.73;63.84;93216.91;4824267;29;20062;-89
2021/09/01 19:44:39;;;;;;;0.93;0.80;;;;;;;16.88;63.77;93244.03;4804747;29;20058;-90
2021/09/01 19:47:06;;;;;;;1.83;1.08;;;;;;;16.86;64.00;93249.63;4823692;29;20039;-91
2021/09/01 19:49:32;;;;;;;2.63;1.40;;;;;;;16.82;63.77;93249.47;4826287;29;20078;-90
2021/09/01 19:52:11;;;;;;;2.38;1.33;;;;;;;16.82;64.05;93249.47;4824311;29;20446;-90
2021/09/01 19:54:46;;;;;;;1.55;1.00;;;;;;;16.59;64.13;93229.44;4821158;29;20099;-92
2021/09/01 19:57:50;;;;;;;;;;;;;;;;;;;;;
2021/09/01 20:01:00;;;;;;;0.57;0.55;;;;;;;16.75;63.62;93253.59;4816130;29;20046;-93
2021/09/01 20:04:39;;;;;;;;;;;;;;;;;;;;;
2021/09/01 20:08:18;;;;;;;;;;;;;;;;;;;;;
2021/09/01 20:14:56;;;;;;;1.95;1.23;;;;;;;16.67;64.36;93284.19;4811276;29;20133;-93
2021/09/01 20:18:06;;;;;;;;;;;;;;;;;;;;;
2021/09/01 20:23:59;;;;;;;;;;;;;;;;;;;;;
2021/09/01 20:26:47;;;;;;;1.67;1.20;;;;;;;16.32;64.94;93262.88;4770135;30;20058;-95
2021/09/01 20:30:10;;;;;;;;;;;;;;;;;;;;;
2021/09/01 20:33:58;;;;;;;3.03;1.20;;;;;;;16.39;65.66;93292.31;4832994;29;20407;-94
2021/09/01 20:37:17;;;;;;;;;;;;;;;;;;;;;
2021/09/01 20:41:14;;;;;;;1.58;1.00;;;;;;;16.37;65.34;93297.09;4823675;29;20042;-93
2021/09/01 20:48:15;;;;;;;3.13;1.23;;;;;;;16.06;65.42;93248.75;4822604;29;20111;-93
2021/09/01 20:51:43;;;;;;;;;;;;;;;;;;;;;
2021/09/01 20:54:58;;;;;;;1.83;1.27;;;;;;;16.05;65.99;93257.72;4825388;29;20046;-93
2021/09/01 21:01:28;;;;;;;;;;;;;;;;;;;;;
2021/09/01 21:08:02;;;;;;;1.23;0.80;;;;;;;15.91;66.37;93253.28;4828190;29;20045;-93
2021/09/01 21:11:18;;;;;;;;;;;;;;;;;;;;;
2021/09/01 21:14:29;;;;;;;;;;;;;;;;;;;;;
2021/09/01 21:18:15;;;;;;;0.77;0.75;;;;;;;15.86;67.44;93266.63;4828403;29;20062;-93
2021/09/01 21:21:43;;;;;;;;;;;;;;;;;;;;;
2021/09/01 21:28:41;;;;;;;;;;;;;;;;;;;;;
2021/09/01 21:35:39;;;;;;;1.42;1.00;;;;;;;15.67;68.44;93269.41;4811042;29;20360;-93
2021/09/01 21:49:16;;;;;;;;;;;;;;;;;;;;;
2021/09/01 21:52:12;;;;;;;1.70;1.23;;;;;;;15.53;68.95;93274.69;4824368;29;20050;-93
2021/09/01 21:54:49;;;;;;;;;;;;;;;;;;;;;
2021/09/01 21:57:41;;;;;;;;;;;;;;;;;;;;;
2021/09/01 22:00:47;;;;;;;2.45;1.35;;;;;;;15.83;68.53;93317.38;4807112;29;20050;-93
2021/09/01 22:04:06;;;;;;;;;;;;;;;;;;;;;
2021/09/01 22:07:13;;;;;;;1.45;0.98;;;;;;;15.38;69.23;93260.00;4813248;29;20099;-93
2021/09/01 22:10:28;;;;;;;1.98;0.98;;;;;;;15.78;69.40;93328.84;4792413;29;20059;-91
2021/09/01 22:13:39;;;;;;;0.90;0.90;;;;;;;15.38;69.24;93275.03;4795890;29;20039;-96